createdAt,value
2017-01-03T00:04:02.610Z,0
2017-01-03T00:09:01.511Z,0
2017-01-03T00:13:59.767Z,0
2017-01-03T00:18:56.880Z,0
2017-01-03T00:29:01.966Z,0
2017-01-03T00:34:00.280Z,0
2017-01-03T00:38:56.739Z,0
2017-01-03T00:43:53.504Z,0
2017-01-03T00:48:50.104Z,0
2017-01-03T00:53:51.537Z,0
2017-01-03T00:58:47.860Z,0
2017-01-03T01:03:44.657Z,0
2017-01-03T01:08:43.999Z,0
2017-01-03T01:13:40.050Z,0
2017-01-03T01:18:36.353Z,0
2017-01-03T01:23:34.586Z,0
2017-01-03T01:28:30.919Z,0
2017-01-03T01:38:31.483Z,0
2017-01-03T01:43:28.218Z,0
2017-01-03T01:48:25.596Z,0
2017-01-03T01:53:23.012Z,0
2017-01-03T01:58:22.659Z,0
2017-01-03T02:08:22.815Z,0
2017-01-03T02:13:19.428Z,0
2017-01-03T02:18:18.292Z,0
2017-01-03T02:23:15.303Z,0
2017-01-03T02:28:12.080Z,0
2017-01-03T02:33:08.469Z,0
2017-01-03T02:38:05.285Z,0
2017-01-03T02:43:02.586Z,0
2017-01-03T02:47:59.967Z,0
2017-01-03T02:52:56.134Z,0
2017-01-03T02:57:53.444Z,0
2017-01-03T03:02:50.052Z,0
2017-01-03T03:07:46.486Z,0
2017-01-03T03:12:44.194Z,0
2017-01-03T03:17:40.815Z,0
2017-01-03T03:22:38.332Z,0
2017-01-03T03:27:34.997Z,0
2017-01-03T03:37:36.147Z,0
2017-01-03T03:42:32.785Z,0
2017-01-03T03:47:29.562Z,0
2017-01-03T03:52:27.984Z,0
2017-01-03T03:57:25.392Z,0
2017-01-03T04:02:21.882Z,0
2017-01-03T04:07:18.541Z,0
2017-01-03T04:12:15.091Z,0
2017-01-03T04:17:12.961Z,0
2017-01-03T04:22:10.340Z,0
2017-01-03T04:27:06.678Z,0
2017-01-03T04:32:03.286Z,0
2017-01-03T04:37:00.055Z,0
2017-01-03T04:41:56.609Z,0
2017-01-03T04:46:53.034Z,0
2017-01-03T04:51:50.243Z,0
2017-01-03T04:56:46.755Z,0
2017-01-03T05:01:44.534Z,0
2017-01-03T05:06:40.848Z,0
2017-01-03T05:11:37.377Z,0
2017-01-03T05:16:33.801Z,0
2017-01-03T05:21:30.471Z,0
2017-01-03T05:26:26.952Z,0
2017-01-03T05:31:24.650Z,0
2017-01-03T05:36:21.267Z,0
2017-01-03T05:41:17.386Z,0
2017-01-03T05:46:14.945Z,0
2017-01-03T05:51:11.405Z,0
2017-01-03T05:56:08.058Z,0
2017-01-03T06:01:05.354Z,0
2017-01-03T06:06:02.080Z,0
2017-01-03T06:10:58.693Z,0
2017-01-03T06:15:55.220Z,0
2017-01-03T06:20:51.943Z,0
2017-01-03T06:25:48.372Z,0
2017-01-03T06:30:45.140Z,0
2017-01-03T06:35:41.749Z,0
2017-01-03T06:40:38.132Z,0
2017-01-03T06:45:34.716Z,0
2017-01-03T06:50:31.244Z,0
2017-01-03T06:55:27.635Z,0
2017-01-03T07:00:24.001Z,0
2017-01-03T07:05:20.760Z,0
2017-01-03T07:10:17.579Z,4
2017-01-03T07:15:15.176Z,8
2017-01-03T07:20:11.280Z,12
2017-01-03T07:25:08.024Z,32
2017-01-03T07:30:04.307Z,56
2017-01-03T07:35:01.237Z,104
2017-01-03T07:39:57.987Z,180
2017-01-03T07:44:54.742Z,236
2017-01-03T07:49:51.114Z,284
2017-01-03T07:54:47.947Z,336
2017-01-03T07:59:44.459Z,340
2017-01-03T08:04:42.325Z,380
2017-01-03T08:09:38.704Z,376
2017-01-03T08:14:35.163Z,584
2017-01-03T08:19:31.704Z,692
2017-01-03T08:24:28.277Z,1036
2017-01-03T08:29:24.860Z,1200
2017-01-03T08:34:21.443Z,1336
2017-01-03T08:39:18.032Z,1240
2017-01-03T08:44:14.481Z,1064
2017-01-03T08:49:11.033Z,768
2017-01-03T08:54:07.681Z,760
2017-01-03T08:59:04.486Z,908
2017-01-03T09:04:01.047Z,668
2017-01-03T09:08:57.746Z,1028
2017-01-03T09:13:54.859Z,1068
2017-01-03T09:18:51.395Z,1132
2017-01-03T09:23:47.867Z,1252
2017-01-03T09:28:45.482Z,952
2017-01-03T09:33:42.971Z,1056
2017-01-03T09:38:39.548Z,1620
2017-01-03T09:43:35.726Z,1760
2017-01-03T09:48:32.398Z,1748
2017-01-03T09:53:28.848Z,1668
2017-01-03T09:58:25.229Z,1852
2017-01-03T10:03:21.779Z,2464
2017-01-03T10:08:18.882Z,2888
2017-01-03T10:13:15.559Z,2992
2017-01-03T10:18:12.387Z,3600
2017-01-03T10:23:08.814Z,2876
2017-01-03T10:28:05.258Z,2224
2017-01-03T10:33:01.975Z,1924
2017-01-03T10:37:58.421Z,3124
2017-01-03T10:42:54.902Z,2852
2017-01-03T10:47:51.609Z,2504
2017-01-03T10:52:47.522Z,2320
2017-01-03T10:57:43.865Z,4080
2017-01-03T11:02:40.398Z,4640
2017-01-03T11:07:37.696Z,3708
2017-01-03T11:12:34.033Z,4492
2017-01-03T11:17:30.624Z,3580
2017-01-03T11:22:27.825Z,3568
2017-01-03T11:27:24.431Z,4056
2017-01-03T11:32:21.721Z,5620
2017-01-03T11:37:18.295Z,7424
2017-01-03T11:42:15.002Z,5072
2017-01-03T11:47:12.139Z,6016
2017-01-03T11:52:08.645Z,5148
2017-01-03T11:57:05.101Z,3880
2017-01-03T12:02:01.428Z,3592
2017-01-03T12:06:58.080Z,4432
2017-01-03T12:11:54.402Z,3384
2017-01-03T12:16:50.776Z,1824
2017-01-03T12:21:47.327Z,2164
2017-01-03T12:26:43.199Z,2460
2017-01-03T12:31:39.533Z,2264
2017-01-03T12:36:36.488Z,2428
2017-01-03T12:41:33.491Z,2920
2017-01-03T12:46:29.808Z,2480
2017-01-03T12:51:26.959Z,3416
2017-01-03T12:56:23.470Z,3208
2017-01-03T13:01:20.050Z,3252
2017-01-03T13:06:16.577Z,2744
2017-01-03T13:11:13.253Z,1784
2017-01-03T13:16:09.564Z,1836
2017-01-03T13:21:05.944Z,1196
2017-01-03T13:26:02.344Z,1360
2017-01-03T13:30:58.635Z,1216
2017-01-03T13:35:54.996Z,968
2017-01-03T13:40:52.491Z,1080
2017-01-03T13:45:48.703Z,764
2017-01-03T13:50:45.274Z,988
2017-01-03T13:55:41.582Z,656
2017-01-03T14:00:37.907Z,1216
2017-01-03T14:05:34.297Z,776
2017-01-03T14:10:30.663Z,604
2017-01-03T14:15:28.531Z,596
2017-01-03T14:20:25.591Z,592
2017-01-03T14:25:21.894Z,860
2017-01-03T14:30:18.352Z,424
2017-01-03T14:35:14.734Z,260
2017-01-03T14:40:11.535Z,232
2017-01-03T14:45:07.361Z,172
2017-01-03T14:50:04.014Z,180
2017-01-03T14:55:00.321Z,104
2017-01-03T14:59:56.536Z,132
2017-01-03T15:04:53.212Z,84
2017-01-03T15:09:49.541Z,84
2017-01-03T15:14:45.856Z,76
2017-01-03T15:19:42.173Z,52
2017-01-03T15:24:38.548Z,48
2017-01-03T15:29:34.967Z,48
2017-01-03T15:34:31.980Z,28
2017-01-03T15:39:28.432Z,12
2017-01-03T15:44:24.894Z,8
2017-01-03T15:49:21.337Z,4
2017-01-03T15:54:17.904Z,4
2017-01-03T15:59:14.279Z,0
2017-01-03T16:04:10.835Z,0
2017-01-03T16:09:06.876Z,0
2017-01-03T16:14:03.468Z,0
2017-01-03T16:18:59.845Z,0
2017-01-03T16:23:56.381Z,0
2017-01-03T16:28:52.960Z,0
2017-01-03T16:33:49.215Z,0
2017-01-03T16:38:45.703Z,0
2017-01-03T16:43:42.050Z,0
2017-01-03T16:48:38.458Z,0
2017-01-03T16:53:35.137Z,0
2017-01-03T16:58:31.453Z,0
2017-01-03T17:03:28.021Z,0
2017-01-03T17:08:24.252Z,0
2017-01-03T17:13:20.947Z,0
2017-01-03T17:18:17.345Z,0
2017-01-03T17:23:13.890Z,0
2017-01-03T17:28:10.123Z,0
2017-01-03T17:33:06.671Z,0
2017-01-03T17:38:03.085Z,0
2017-01-03T17:42:59.589Z,0
2017-01-03T17:47:56.182Z,0
2017-01-03T17:52:52.554Z,0
2017-01-03T17:57:48.940Z,0
2017-01-03T18:02:45.344Z,0
2017-01-03T18:07:41.812Z,0
2017-01-03T18:12:38.219Z,0
2017-01-03T18:17:34.857Z,0
2017-01-03T18:22:31.203Z,0
2017-01-03T18:27:27.553Z,0
2017-01-03T18:32:24.006Z,0
2017-01-03T18:37:20.758Z,0
2017-01-03T18:42:17.069Z,0
2017-01-03T18:47:13.760Z,0
2017-01-03T18:52:10.080Z,0
2017-01-03T18:57:06.513Z,0
2017-01-03T19:02:03.098Z,0
2017-01-03T19:06:59.491Z,0
2017-01-03T19:11:56.169Z,0
2017-01-03T19:16:52.778Z,0
2017-01-03T19:21:48.842Z,0
2017-01-03T19:26:45.227Z,0
2017-01-03T19:31:41.704Z,0
2017-01-03T19:36:38.204Z,0
2017-01-03T19:41:34.611Z,0
2017-01-03T19:46:32.088Z,0
2017-01-03T19:51:28.336Z,0
2017-01-03T19:56:24.892Z,0
2017-01-03T20:01:21.555Z,0
2017-01-03T20:06:17.668Z,0
2017-01-03T20:11:14.136Z,0
2017-01-03T20:16:10.313Z,0
2017-01-03T20:21:06.809Z,0
2017-01-03T20:26:03.525Z,0
2017-01-03T20:30:59.891Z,0
2017-01-03T20:35:56.284Z,0
2017-01-03T20:40:53.708Z,0
2017-01-03T20:45:50.209Z,0
2017-01-03T20:50:46.830Z,0
2017-01-03T20:55:43.383Z,0
2017-01-03T21:00:40.144Z,0
2017-01-03T21:05:36.849Z,0
2017-01-03T21:10:33.153Z,0
2017-01-03T21:15:29.700Z,0
2017-01-03T21:20:26.143Z,0
2017-01-03T21:25:22.843Z,0
2017-01-03T21:30:19.397Z,0
2017-01-03T21:35:16.523Z,0
2017-01-03T21:40:13.195Z,0
2017-01-03T21:45:09.754Z,0
2017-01-03T21:50:06.221Z,0
2017-01-03T21:55:02.862Z,0
2017-01-03T22:00:00.220Z,0
2017-01-03T22:04:56.091Z,0
2017-01-03T22:09:54.838Z,0
2017-01-03T22:14:51.357Z,0
2017-01-03T22:19:47.376Z,0
2017-01-03T22:24:43.656Z,0
2017-01-03T22:29:40.153Z,0
2017-01-03T22:34:36.828Z,0
2017-01-03T22:39:32.900Z,0
2017-01-03T22:44:29.277Z,0
2017-01-03T22:49:25.597Z,0
2017-01-03T22:54:25.521Z,0
2017-01-03T22:59:21.172Z,0
2017-01-03T23:04:17.463Z,0
2017-01-03T23:09:13.880Z,0
2017-01-03T23:14:10.392Z,0
2017-01-03T23:19:06.863Z,0
2017-01-03T23:24:03.347Z,0
2017-01-03T23:29:00.805Z,0
2017-01-03T23:33:56.880Z,0
2017-01-03T23:38:53.445Z,0
2017-01-03T23:43:49.762Z,0
2017-01-03T23:48:46.740Z,0
2017-01-03T23:53:43.156Z,0
2017-01-03T23:58:39.774Z,0
